sensor_id;sensor_type;location;lat;lon;timestamp;temperature;humidity
12827;DHT22;66927;48.812;9.118;2023-02-22T00:00:52;5.40;99.90
12827;DHT22;66927;48.812;9.118;2023-02-22T00:03:27;5.30;99.90
12827;DHT22;66927;48.812;9.118;2023-02-22T00:05:58;5.20;99.90
12827;DHT22;66927;48.812;9.118;2023-02-22T00:08:26;5.20;99.90
12827;DHT22;66927;48.812;9.118;2023-02-22T00:11:01;5.20;99.90
12827;DHT22;66927;48.812;9.118;2023-02-22T00:13:28;5.10;99.90
12827;DHT22;66927;48.812;9.118;2023-02-22T00:15:56;5.10;99.90
12827;DHT22;66927;48.812;9.118;2023-02-22T00:18:21;5.10;99.90
12827;DHT22;66927;48.812;9.118;2023-02-22T00:20:47;5.10;99.90
12827;DHT22;66927;48.812;9.118;2023-02-22T00:23:16;5.20;99.90
12827;DHT22;66927;48.812;9.118;2023-02-22T00:25:44;5.20;99.90
12827;DHT22;66927;48.812;9.118;2023-02-22T00:28:11;5.20;99.90
12827;DHT22;66927;48.812;9.118;2023-02-22T00:30:37;5.20;99.90
12827;DHT22;66927;48.812;9.118;2023-02-22T00:33:03;5.20;99.90
12827;DHT22;66927;48.812;9.118;2023-02-22T00:35:30;5.20;99.90
12827;DHT22;66927;48.812;9.118;2023-02-22T00:37:59;5.20;99.90
12827;DHT22;66927;48.812;9.118;2023-02-22T00:40:30;5.20;99.90
12827;DHT22;66927;48.812;9.118;2023-02-22T00:42:58;5.10;99.90
12827;DHT22;66927;48.812;9.118;2023-02-22T00:45:25;5.10;99.90
12827;DHT22;66927;48.812;9.118;2023-02-22T00:47:52;5.10;99.90
12827;DHT22;66927;48.812;9.118;2023-02-22T00:50:19;5.00;99.90
12827;DHT22;66927;48.812;9.118;2023-02-22T00:52:45;5.00;99.90
12827;DHT22;66927;48.812;9.118;2023-02-22T00:55:21;4.90;99.90
12827;DHT22;66927;48.812;9.118;2023-02-22T00:57:47;4.90;99.90
12827;DHT22;66927;48.812;9.118;2023-02-22T01:00:25;4.80;99.90
12827;DHT22;66927;48.812;9.118;2023-02-22T01:02:52;4.80;99.90
12827;DHT22;66927;48.812;9.118;2023-02-22T01:05:21;4.80;99.90
12827;DHT22;66927;48.812;9.118;2023-02-22T01:07:48;4.90;99.90
12827;DHT22;66927;48.812;9.118;2023-02-22T01:10:17;4.80;99.90
12827;DHT22;66927;48.812;9.118;2023-02-22T01:12:44;4.80;99.90
12827;DHT22;66927;48.812;9.118;2023-02-22T01:15:10;4.80;99.90
12827;DHT22;66927;48.812;9.118;2023-02-22T01:17:37;4.80;99.90
12827;DHT22;66927;48.812;9.118;2023-02-22T01:20:05;4.90;99.90
12827;DHT22;66927;48.812;9.118;2023-02-22T01:22:39;4.80;99.90
12827;DHT22;66927;48.812;9.118;2023-02-22T01:25:05;4.80;99.90
12827;DHT22;66927;48.812;9.118;2023-02-22T01:27:33;4.80;99.90
12827;DHT22;66927;48.812;9.118;2023-02-22T01:30:01;4.80;99.90
12827;DHT22;66927;48.812;9.118;2023-02-22T01:32:33;4.70;99.90
12827;DHT22;66927;48.812;9.118;2023-02-22T01:35:00;4.50;99.90
12827;DHT22;66927;48.812;9.118;2023-02-22T01:37:30;4.50;99.90
12827;DHT22;66927;48.812;9.118;2023-02-22T01:39:57;4.50;99.90
12827;DHT22;66927;48.812;9.118;2023-02-22T01:42:23;4.50;99.90
12827;DHT22;66927;48.812;9.118;2023-02-22T01:48:17;4.50;99.90
12827;DHT22;66927;48.812;9.118;2023-02-22T01:50:44;4.40;99.90
12827;DHT22;66927;48.812;9.118;2023-02-22T01:53:14;4.50;99.90
12827;DHT22;66927;48.812;9.118;2023-02-22T01:55:41;4.40;99.90
12827;DHT22;66927;48.812;9.118;2023-02-22T01:58:07;4.40;99.90
12827;DHT22;66927;48.812;9.118;2023-02-22T02:00:33;4.50;99.90
12827;DHT22;66927;48.812;9.118;2023-02-22T02:03:08;4.40;99.90
12827;DHT22;66927;48.812;9.118;2023-02-22T02:05:35;4.40;99.90
12827;DHT22;66927;48.812;9.118;2023-02-22T02:10:57;4.40;99.90
12827;DHT22;66927;48.812;9.118;2023-02-22T02:13:25;4.30;99.90
12827;DHT22;66927;48.812;9.118;2023-02-22T02:15:54;4.30;99.90
12827;DHT22;66927;48.812;9.118;2023-02-22T02:18:20;4.30;99.90
12827;DHT22;66927;48.812;9.118;2023-02-22T02:21:14;4.30;99.90
12827;DHT22;66927;48.812;9.118;2023-02-22T02:30:07;4.30;99.90
12827;DHT22;66927;48.812;9.118;2023-02-22T02:38:21;4.30;99.90
12827;DHT22;66927;48.812;9.118;2023-02-22T02:41:17;4.30;99.90
12827;DHT22;66927;48.812;9.118;2023-02-22T02:47:31;4.20;99.90
12827;DHT22;66927;48.812;9.118;2023-02-22T02:50:04;4.20;99.90
12827;DHT22;66927;48.812;9.118;2023-02-22T02:52:32;4.10;99.90
12827;DHT22;66927;48.812;9.118;2023-02-22T02:54:59;4.10;99.90
12827;DHT22;66927;48.812;9.118;2023-02-22T02:57:25;4.10;99.90
12827;DHT22;66927;48.812;9.118;2023-02-22T02:59:51;4.00;99.90
12827;DHT22;66927;48.812;9.118;2023-02-22T03:05:49;4.00;99.90
12827;DHT22;66927;48.812;9.118;2023-02-22T03:13:43;3.90;99.90
12827;DHT22;66927;48.812;9.118;2023-02-22T03:19:04;3.80;99.90
12827;DHT22;66927;48.812;9.118;2023-02-22T03:21:40;3.80;99.90
12827;DHT22;66927;48.812;9.118;2023-02-22T03:24:20;3.80;99.90
12827;DHT22;66927;48.812;9.118;2023-02-22T03:26:52;3.80;99.90
12827;DHT22;66927;48.812;9.118;2023-02-22T03:29:21;3.70;99.90
12827;DHT22;66927;48.812;9.118;2023-02-22T03:31:52;3.70;99.90
12827;DHT22;66927;48.812;9.118;2023-02-22T03:34:22;3.70;99.90
12827;DHT22;66927;48.812;9.118;2023-02-22T03:37:17;3.70;99.90
12827;DHT22;66927;48.812;9.118;2023-02-22T03:39:44;3.60;99.90
12827;DHT22;66927;48.812;9.118;2023-02-22T03:42:20;3.60;99.90
12827;DHT22;66927;48.812;9.118;2023-02-22T03:44:47;3.60;99.90
12827;DHT22;66927;48.812;9.118;2023-02-22T03:47:20;3.70;99.90
12827;DHT22;66927;48.812;9.118;2023-02-22T03:52:37;3.60;99.90
12827;DHT22;66927;48.812;9.118;2023-02-22T03:55:03;3.60;99.90
12827;DHT22;66927;48.812;9.118;2023-02-22T03:57:38;3.60;99.90
12827;DHT22;66927;48.812;9.118;2023-02-22T04:00:08;3.60;99.90
12827;DHT22;66927;48.812;9.118;2023-02-22T04:02:35;3.70;99.90
12827;DHT22;66927;48.812;9.118;2023-02-22T04:05:02;3.70;99.90
12827;DHT22;66927;48.812;9.118;2023-02-22T04:07:28;3.70;99.90
12827;DHT22;66927;48.812;9.118;2023-02-22T04:09:54;3.70;99.90
12827;DHT22;66927;48.812;9.118;2023-02-22T04:12:20;3.60;99.90
12827;DHT22;66927;48.812;9.118;2023-02-22T04:14:45;3.70;99.90
12827;DHT22;66927;48.812;9.118;2023-02-22T04:17:11;3.60;99.90
12827;DHT22;66927;48.812;9.118;2023-02-22T04:19:36;3.60;99.90
12827;DHT22;66927;48.812;9.118;2023-02-22T04:22:02;3.60;99.90
12827;DHT22;66927;48.812;9.118;2023-02-22T04:24:28;3.60;99.90
12827;DHT22;66927;48.812;9.118;2023-02-22T04:26:53;3.50;99.90
12827;DHT22;66927;48.812;9.118;2023-02-22T04:29:19;3.50;99.90
12827;DHT22;66927;48.812;9.118;2023-02-22T04:31:47;3.50;99.90
12827;DHT22;66927;48.812;9.118;2023-02-22T04:34:13;3.50;99.90
12827;DHT22;66927;48.812;9.118;2023-02-22T04:36:38;3.40;99.90
12827;DHT22;66927;48.812;9.118;2023-02-22T04:39:07;3.40;99.90
12827;DHT22;66927;48.812;9.118;2023-02-22T04:41:32;3.30;99.90
12827;DHT22;66927;48.812;9.118;2023-02-22T04:43:59;3.20;99.90
12827;DHT22;66927;48.812;9.118;2023-02-22T04:46:25;3.20;99.90
12827;DHT22;66927;48.812;9.118;2023-02-22T04:48:52;3.20;99.90
12827;DHT22;66927;48.812;9.118;2023-02-22T04:51:19;3.20;99.90
12827;DHT22;66927;48.812;9.118;2023-02-22T04:53:45;3.20;99.90
12827;DHT22;66927;48.812;9.118;2023-02-22T04:56:11;3.20;99.90
12827;DHT22;66927;48.812;9.118;2023-02-22T04:58:37;3.20;99.90
12827;DHT22;66927;48.812;9.118;2023-02-22T05:01:03;3.10;99.90
12827;DHT22;66927;48.812;9.118;2023-02-22T05:03:29;3.20;99.90
12827;DHT22;66927;48.812;9.118;2023-02-22T05:05:55;3.20;99.90
12827;DHT22;66927;48.812;9.118;2023-02-22T05:08:20;3.20;99.90
12827;DHT22;66927;48.812;9.118;2023-02-22T05:10:46;3.10;99.90
12827;DHT22;66927;48.812;9.118;2023-02-22T05:13:12;3.10;99.90
12827;DHT22;66927;48.812;9.118;2023-02-22T05:15:37;3.10;99.90
12827;DHT22;66927;48.812;9.118;2023-02-22T05:18:03;3.10;99.90
12827;DHT22;66927;48.812;9.118;2023-02-22T05:20:31;3.10;99.90
12827;DHT22;66927;48.812;9.118;2023-02-22T05:22:59;3.00;99.90
12827;DHT22;66927;48.812;9.118;2023-02-22T05:25:25;3.00;99.90
12827;DHT22;66927;48.812;9.118;2023-02-22T05:27:55;3.00;99.90
12827;DHT22;66927;48.812;9.118;2023-02-22T05:30:24;3.10;99.90
12827;DHT22;66927;48.812;9.118;2023-02-22T05:32:50;3.10;99.90
12827;DHT22;66927;48.812;9.118;2023-02-22T05:35:21;3.10;99.90
12827;DHT22;66927;48.812;9.118;2023-02-22T05:37:47;3.10;99.90
12827;DHT22;66927;48.812;9.118;2023-02-22T05:40:13;3.10;99.90
12827;DHT22;66927;48.812;9.118;2023-02-22T05:42:40;3.10;99.90
12827;DHT22;66927;48.812;9.118;2023-02-22T05:45:06;3.10;99.90
12827;DHT22;66927;48.812;9.118;2023-02-22T05:47:33;3.10;99.90
12827;DHT22;66927;48.812;9.118;2023-02-22T05:49:59;3.10;99.90
12827;DHT22;66927;48.812;9.118;2023-02-22T05:52:26;3.10;99.90
12827;DHT22;66927;48.812;9.118;2023-02-22T05:54:52;3.10;99.90
12827;DHT22;66927;48.812;9.118;2023-02-22T05:57:17;3.20;99.90
12827;DHT22;66927;48.812;9.118;2023-02-22T05:59:43;3.20;99.90
12827;DHT22;66927;48.812;9.118;2023-02-22T06:02:09;3.10;99.90
12827;DHT22;66927;48.812;9.118;2023-02-22T06:04:34;3.10;99.90
12827;DHT22;66927;48.812;9.118;2023-02-22T06:07:01;3.20;99.90
12827;DHT22;66927;48.812;9.118;2023-02-22T06:09:27;3.10;99.90
12827;DHT22;66927;48.812;9.118;2023-02-22T06:11:55;3.10;99.90
12827;DHT22;66927;48.812;9.118;2023-02-22T06:14:21;3.10;99.90
12827;DHT22;66927;48.812;9.118;2023-02-22T06:16:54;3.10;99.90
12827;DHT22;66927;48.812;9.118;2023-02-22T06:19:21;3.00;99.90
12827;DHT22;66927;48.812;9.118;2023-02-22T06:21:49;3.00;99.90
12827;DHT22;66927;48.812;9.118;2023-02-22T06:24:16;3.10;99.90
12827;DHT22;66927;48.812;9.118;2023-02-22T06:26:42;3.10;99.90
12827;DHT22;66927;48.812;9.118;2023-02-22T06:29:07;3.10;99.90
12827;DHT22;66927;48.812;9.118;2023-02-22T06:31:34;3.20;99.90
12827;DHT22;66927;48.812;9.118;2023-02-22T06:34:01;3.20;99.90
12827;DHT22;66927;48.812;9.118;2023-02-22T06:36:27;3.30;99.90
12827;DHT22;66927;48.812;9.118;2023-02-22T06:38:55;3.30;99.90
12827;DHT22;66927;48.812;9.118;2023-02-22T06:41:20;3.30;99.90
12827;DHT22;66927;48.812;9.118;2023-02-22T06:43:47;3.40;99.90
12827;DHT22;66927;48.812;9.118;2023-02-22T06:46:12;3.40;99.90
12827;DHT22;66927;48.812;9.118;2023-02-22T06:48:38;3.50;99.90
12827;DHT22;66927;48.812;9.118;2023-02-22T06:51:08;3.50;99.90
12827;DHT22;66927;48.812;9.118;2023-02-22T06:53:34;3.50;99.90
12827;DHT22;66927;48.812;9.118;2023-02-22T06:56:01;3.60;99.90
12827;DHT22;66927;48.812;9.118;2023-02-22T06:58:27;3.60;99.90
12827;DHT22;66927;48.812;9.118;2023-02-22T07:00:53;3.60;99.90
12827;DHT22;66927;48.812;9.118;2023-02-22T07:03:20;3.70;99.90
12827;DHT22;66927;48.812;9.118;2023-02-22T07:05:46;3.70;99.90
12827;DHT22;66927;48.812;9.118;2023-02-22T07:08:12;3.80;99.90
12827;DHT22;66927;48.812;9.118;2023-02-22T07:10:39;3.80;99.90
12827;DHT22;66927;48.812;9.118;2023-02-22T07:13:07;3.90;99.90
12827;DHT22;66927;48.812;9.118;2023-02-22T07:15:34;3.90;99.90
12827;DHT22;66927;48.812;9.118;2023-02-22T07:18:00;4.00;99.90
12827;DHT22;66927;48.812;9.118;2023-02-22T07:20:30;4.00;99.90
12827;DHT22;66927;48.812;9.118;2023-02-22T07:22:56;4.10;99.90
12827;DHT22;66927;48.812;9.118;2023-02-22T07:25:22;4.10;99.90
12827;DHT22;66927;48.812;9.118;2023-02-22T07:27:48;4.20;99.90
12827;DHT22;66927;48.812;9.118;2023-02-22T07:30:24;4.30;99.90
12827;DHT22;66927;48.812;9.118;2023-02-22T07:32:53;4.30;99.90
12827;DHT22;66927;48.812;9.118;2023-02-22T07:35:23;4.40;99.90
12827;DHT22;66927;48.812;9.118;2023-02-22T07:37:49;4.50;99.90
12827;DHT22;66927;48.812;9.118;2023-02-22T07:40:15;4.70;99.90
12827;DHT22;66927;48.812;9.118;2023-02-22T07:43:11;4.80;99.90
12827;DHT22;66927;48.812;9.118;2023-02-22T07:45:37;4.90;99.90
12827;DHT22;66927;48.812;9.118;2023-02-22T07:48:04;5.00;99.90
12827;DHT22;66927;48.812;9.118;2023-02-22T07:50:31;5.10;99.90
12827;DHT22;66927;48.812;9.118;2023-02-22T07:52:59;5.30;99.90
12827;DHT22;66927;48.812;9.118;2023-02-22T07:55:27;5.30;99.90
12827;DHT22;66927;48.812;9.118;2023-02-22T07:57:55;5.50;99.90
12827;DHT22;66927;48.812;9.118;2023-02-22T08:00:30;5.60;99.90
12827;DHT22;66927;48.812;9.118;2023-02-22T08:02:58;5.70;99.90
12827;DHT22;66927;48.812;9.118;2023-02-22T08:05:25;5.80;99.90
12827;DHT22;66927;48.812;9.118;2023-02-22T08:07:51;5.90;99.90
12827;DHT22;66927;48.812;9.118;2023-02-22T08:10:18;6.10;99.90
12827;DHT22;66927;48.812;9.118;2023-02-22T08:12:44;6.20;99.90
12827;DHT22;66927;48.812;9.118;2023-02-22T08:15:16;6.30;99.90
12827;DHT22;66927;48.812;9.118;2023-02-22T08:17:42;6.30;99.90
12827;DHT22;66927;48.812;9.118;2023-02-22T08:20:08;6.40;99.90
12827;DHT22;66927;48.812;9.118;2023-02-22T08:22:34;6.60;99.90
12827;DHT22;66927;48.812;9.118;2023-02-22T08:25:00;6.70;99.90
12827;DHT22;66927;48.812;9.118;2023-02-22T08:27:28;7.00;99.90
12827;DHT22;66927;48.812;9.118;2023-02-22T08:29:55;7.10;99.90
12827;DHT22;66927;48.812;9.118;2023-02-22T08:32:22;7.30;99.90
12827;DHT22;66927;48.812;9.118;2023-02-22T08:34:48;7.50;99.90
12827;DHT22;66927;48.812;9.118;2023-02-22T08:37:15;7.70;99.90
12827;DHT22;66927;48.812;9.118;2023-02-22T08:39:42;7.70;99.90
12827;DHT22;66927;48.812;9.118;2023-02-22T08:42:09;7.90;99.90
12827;DHT22;66927;48.812;9.118;2023-02-22T08:44:38;8.10;99.90
12827;DHT22;66927;48.812;9.118;2023-02-22T08:47:05;8.30;99.90
12827;DHT22;66927;48.812;9.118;2023-02-22T08:49:31;8.40;99.90
12827;DHT22;66927;48.812;9.118;2023-02-22T08:51:57;8.60;99.90
12827;DHT22;66927;48.812;9.118;2023-02-22T08:54:23;8.80;99.90
12827;DHT22;66927;48.812;9.118;2023-02-22T08:56:49;9.00;99.90
12827;DHT22;66927;48.812;9.118;2023-02-22T08:59:16;9.30;99.90
12827;DHT22;66927;48.812;9.118;2023-02-22T09:01:41;9.50;99.90
12827;DHT22;66927;48.812;9.118;2023-02-22T09:04:08;9.60;99.90
12827;DHT22;66927;48.812;9.118;2023-02-22T09:06:34;9.80;99.90
12827;DHT22;66927;48.812;9.118;2023-02-22T09:09:00;10.00;99.90
12827;DHT22;66927;48.812;9.118;2023-02-22T09:11:26;10.20;99.90
12827;DHT22;66927;48.812;9.118;2023-02-22T09:13:51;10.40;99.90
12827;DHT22;66927;48.812;9.118;2023-02-22T09:16:17;10.60;99.90
12827;DHT22;66927;48.812;9.118;2023-02-22T09:18:43;10.80;99.90
12827;DHT22;66927;48.812;9.118;2023-02-22T09:21:09;11.00;99.90
12827;DHT22;66927;48.812;9.118;2023-02-22T09:23:37;11.20;99.90
12827;DHT22;66927;48.812;9.118;2023-02-22T09:26:03;11.30;99.90
12827;DHT22;66927;48.812;9.118;2023-02-22T09:28:29;11.40;99.90
12827;DHT22;66927;48.812;9.118;2023-02-22T09:30:55;11.50;99.90
12827;DHT22;66927;48.812;9.118;2023-02-22T09:33:21;11.70;99.90
12827;DHT22;66927;48.812;9.118;2023-02-22T09:35:48;11.90;99.90
12827;DHT22;66927;48.812;9.118;2023-02-22T09:38:20;12.10;99.90
12827;DHT22;66927;48.812;9.118;2023-02-22T09:43:46;12.40;99.90
12827;DHT22;66927;48.812;9.118;2023-02-22T09:46:35;12.70;99.90
12827;DHT22;66927;48.812;9.118;2023-02-22T09:49:16;13.00;99.90
12827;DHT22;66927;48.812;9.118;2023-02-22T09:52:00;13.20;99.90
12827;DHT22;66927;48.812;9.118;2023-02-22T09:54:41;13.30;99.90
12827;DHT22;66927;48.812;9.118;2023-02-22T09:57:12;13.50;99.90
12827;DHT22;66927;48.812;9.118;2023-02-22T09:59:52;13.60;99.90
12827;DHT22;66927;48.812;9.118;2023-02-22T10:02:34;13.90;99.90
12827;DHT22;66927;48.812;9.118;2023-02-22T10:05:09;14.10;99.90
12827;DHT22;66927;48.812;9.118;2023-02-22T10:08:01;14.30;99.90
12827;DHT22;66927;48.812;9.118;2023-02-22T10:10:33;14.40;99.90
12827;DHT22;66927;48.812;9.118;2023-02-22T10:26:29;15.60;99.00
12827;DHT22;66927;48.812;9.118;2023-02-22T10:29:16;16.20;98.40
12827;DHT22;66927;48.812;9.118;2023-02-22T10:31:46;17.00;97.60
12827;DHT22;66927;48.812;9.118;2023-02-22T10:34:16;17.80;95.10
12827;DHT22;66927;48.812;9.118;2023-02-22T10:36:47;18.50;94.90
12827;DHT22;66927;48.812;9.118;2023-02-22T10:41:56;19.40;91.40
12827;DHT22;66927;48.812;9.118;2023-02-22T10:44:22;19.20;91.10
12827;DHT22;66927;48.812;9.118;2023-02-22T10:46:48;19.00;91.30
12827;DHT22;66927;48.812;9.118;2023-02-22T10:49:20;18.70;90.80
12827;DHT22;66927;48.812;9.118;2023-02-22T10:55:05;18.60;92.40
12827;DHT22;66927;48.812;9.118;2023-02-22T10:57:37;19.80;91.40
12827;DHT22;66927;48.812;9.118;2023-02-22T11:02:56;22.90;82.30
12827;DHT22;66927;48.812;9.118;2023-02-22T11:05:31;23.80;77.00
12827;DHT22;66927;48.812;9.118;2023-02-22T11:10:53;25.40;71.00
12827;DHT22;66927;48.812;9.118;2023-02-22T11:13:26;26.50;67.70
12827;DHT22;66927;48.812;9.118;2023-02-22T11:18:45;28.60;57.40
12827;DHT22;66927;48.812;9.118;2023-02-22T11:21:11;28.50;57.80
12827;DHT22;66927;48.812;9.118;2023-02-22T11:23:41;28.80;55.60
12827;DHT22;66927;48.812;9.118;2023-02-22T11:26:11;28.50;55.80
12827;DHT22;66927;48.812;9.118;2023-02-22T11:28:45;27.60;55.90
12827;DHT22;66927;48.812;9.118;2023-02-22T11:31:20;27.40;58.20
12827;DHT22;66927;48.812;9.118;2023-02-22T11:36:32;30.30;54.00
12827;DHT22;66927;48.812;9.118;2023-02-22T11:38:58;31.30;52.00
12827;DHT22;66927;48.812;9.118;2023-02-22T11:41:29;32.00;49.60
12827;DHT22;66927;48.812;9.118;2023-02-22T11:44:13;32.40;49.40
12827;DHT22;66927;48.812;9.118;2023-02-22T11:46:40;32.30;48.80
12827;DHT22;66927;48.812;9.118;2023-02-22T11:49:09;32.00;48.30
12827;DHT22;66927;48.812;9.118;2023-02-22T12:00:11;28.60;50.70
12827;DHT22;66927;48.812;9.118;2023-02-22T12:03:05;27.80;51.70
12827;DHT22;66927;48.812;9.118;2023-02-22T12:05:40;27.30;54.10
12827;DHT22;66927;48.812;9.118;2023-02-22T12:11:22;28.40;52.20
12827;DHT22;66927;48.812;9.118;2023-02-22T12:16:59;26.20;53.40
12827;DHT22;66927;48.812;9.118;2023-02-22T12:19:37;24.70;55.30
12827;DHT22;66927;48.812;9.118;2023-02-22T12:27:33;24.10;60.40
12827;DHT22;66927;48.812;9.118;2023-02-22T12:32:46;27.60;54.30
12827;DHT22;66927;48.812;9.118;2023-02-22T12:35:15;29.50;51.80
12827;DHT22;66927;48.812;9.118;2023-02-22T12:43:31;29.70;49.10
12827;DHT22;66927;48.812;9.118;2023-02-22T12:46:02;29.30;51.20
12827;DHT22;66927;48.812;9.118;2023-02-22T12:48:43;30.00;50.30
12827;DHT22;66927;48.812;9.118;2023-02-22T12:54:13;31.00;48.40
12827;DHT22;66927;48.812;9.118;2023-02-22T12:56:58;32.70;47.10
12827;DHT22;66927;48.812;9.118;2023-02-22T13:02:31;35.80;43.90
12827;DHT22;66927;48.812;9.118;2023-02-22T13:05:00;37.20;41.50
12827;DHT22;66927;48.812;9.118;2023-02-22T13:07:33;37.50;40.60
12827;DHT22;66927;48.812;9.118;2023-02-22T13:20:46;38.10;39.30
12827;DHT22;66927;48.812;9.118;2023-02-22T13:23:38;37.80;39.10
12827;DHT22;66927;48.812;9.118;2023-02-22T13:28:45;37.80;39.00
12827;DHT22;66927;48.812;9.118;2023-02-22T13:34:17;36.60;39.20
12827;DHT22;66927;48.812;9.118;2023-02-22T13:36:56;35.90;39.50
12827;DHT22;66927;48.812;9.118;2023-02-22T13:47:39;33.80;41.10
12827;DHT22;66927;48.812;9.118;2023-02-22T13:50:40;33.40;41.50
12827;DHT22;66927;48.812;9.118;2023-02-22T13:53:14;33.00;41.60
12827;DHT22;66927;48.812;9.118;2023-02-22T13:55:42;31.60;42.90
12827;DHT22;66927;48.812;9.118;2023-02-22T13:58:11;29.70;44.30
12827;DHT22;66927;48.812;9.118;2023-02-22T14:00:56;27.70;46.20
12827;DHT22;66927;48.812;9.118;2023-02-22T14:03:34;25.80;49.10
12827;DHT22;66927;48.812;9.118;2023-02-22T14:06:38;24.00;52.30
12827;DHT22;66927;48.812;9.118;2023-02-22T14:09:16;22.70;55.10
12827;DHT22;66927;48.812;9.118;2023-02-22T14:11:48;21.70;57.30
12827;DHT22;66927;48.812;9.118;2023-02-22T14:14:21;20.90;58.40
12827;DHT22;66927;48.812;9.118;2023-02-22T14:17:20;20.30;59.70
12827;DHT22;66927;48.812;9.118;2023-02-22T14:20:31;19.80;61.60
12827;DHT22;66927;48.812;9.118;2023-02-22T14:26:12;19.40;64.50
12827;DHT22;66927;48.812;9.118;2023-02-22T14:31:21;21.20;63.10
12827;DHT22;66927;48.812;9.118;2023-02-22T14:34:17;21.60;62.00
12827;DHT22;66927;48.812;9.118;2023-02-22T14:37:01;21.80;60.20
12827;DHT22;66927;48.812;9.118;2023-02-22T14:39:38;21.70;61.00
12827;DHT22;66927;48.812;9.118;2023-02-22T14:45:09;20.80;61.70
12827;DHT22;66927;48.812;9.118;2023-02-22T14:47:35;20.50;63.30
12827;DHT22;66927;48.812;9.118;2023-02-22T14:50:19;20.00;64.10
12827;DHT22;66927;48.812;9.118;2023-02-22T14:53:02;19.60;64.90
12827;DHT22;66927;48.812;9.118;2023-02-22T14:55:30;19.20;66.50
12827;DHT22;66927;48.812;9.118;2023-02-22T14:58:14;18.90;67.90
12827;DHT22;66927;48.812;9.118;2023-02-22T15:00:52;18.80;68.60
12827;DHT22;66927;48.812;9.118;2023-02-22T15:06:11;18.30;70.60
12827;DHT22;66927;48.812;9.118;2023-02-22T15:08:41;18.10;70.90
12827;DHT22;66927;48.812;9.118;2023-02-22T15:11:25;18.00;71.40
12827;DHT22;66927;48.812;9.118;2023-02-22T15:13:53;17.90;71.90
12827;DHT22;66927;48.812;9.118;2023-02-22T15:16:21;17.50;72.30
12827;DHT22;66927;48.812;9.118;2023-02-22T15:18:51;17.30;73.00
12827;DHT22;66927;48.812;9.118;2023-02-22T15:21:24;17.20;73.70
12827;DHT22;66927;48.812;9.118;2023-02-22T15:23:54;17.10;74.80
12827;DHT22;66927;48.812;9.118;2023-02-22T15:26:47;17.00;75.50
12827;DHT22;66927;48.812;9.118;2023-02-22T15:31:44;17.00;76.60
12827;DHT22;66927;48.812;9.118;2023-02-22T15:36:41;16.90;77.00
12827;DHT22;66927;48.812;9.118;2023-02-22T15:39:18;16.90;77.20
12827;DHT22;66927;48.812;9.118;2023-02-22T15:41:45;16.90;77.60
12827;DHT22;66927;48.812;9.118;2023-02-22T15:44:11;16.70;77.80
12827;DHT22;66927;48.812;9.118;2023-02-22T15:46:40;16.60;78.40
12827;DHT22;66927;48.812;9.118;2023-02-22T15:51:38;16.40;80.00
12827;DHT22;66927;48.812;9.118;2023-02-22T15:54:05;16.20;80.20
12827;DHT22;66927;48.812;9.118;2023-02-22T15:56:34;16.00;80.90
12827;DHT22;66927;48.812;9.118;2023-02-22T16:01:50;15.90;82.20
12827;DHT22;66927;48.812;9.118;2023-02-22T16:04:20;15.60;83.30
12827;DHT22;66927;48.812;9.118;2023-02-22T16:06:47;15.40;83.80
12827;DHT22;66927;48.812;9.118;2023-02-22T16:09:19;15.30;85.00
12827;DHT22;66927;48.812;9.118;2023-02-22T16:12:05;15.10;85.80
12827;DHT22;66927;48.812;9.118;2023-02-22T16:17:12;14.70;88.00
12827;DHT22;66927;48.812;9.118;2023-02-22T16:19:53;14.60;88.70
12827;DHT22;66927;48.812;9.118;2023-02-22T16:22:26;14.50;89.60
12827;DHT22;66927;48.812;9.118;2023-02-22T16:24:53;14.30;90.10
12827;DHT22;66927;48.812;9.118;2023-02-22T16:27:22;14.30;90.50
12827;DHT22;66927;48.812;9.118;2023-02-22T16:30:22;14.10;90.70
12827;DHT22;66927;48.812;9.118;2023-02-22T16:32:51;14.00;90.90
12827;DHT22;66927;48.812;9.118;2023-02-22T16:35:17;13.80;91.40
12827;DHT22;66927;48.812;9.118;2023-02-22T16:37:56;13.70;91.90
12827;DHT22;66927;48.812;9.118;2023-02-22T16:40:40;13.50;92.30
12827;DHT22;66927;48.812;9.118;2023-02-22T16:43:15;13.30;92.70
12827;DHT22;66927;48.812;9.118;2023-02-22T16:45:42;13.20;93.30
12827;DHT22;66927;48.812;9.118;2023-02-22T16:48:34;13.10;93.90
12827;DHT22;66927;48.812;9.118;2023-02-22T16:51:31;12.90;94.30
12827;DHT22;66927;48.812;9.118;2023-02-22T16:53:59;12.80;94.70
12827;DHT22;66927;48.812;9.118;2023-02-22T16:56:28;12.60;95.20
12827;DHT22;66927;48.812;9.118;2023-02-22T16:58:54;12.60;95.70
12827;DHT22;66927;48.812;9.118;2023-02-22T17:01:20;12.40;96.10
12827;DHT22;66927;48.812;9.118;2023-02-22T17:03:48;12.40;96.70
12827;DHT22;66927;48.812;9.118;2023-02-22T17:06:15;12.30;96.90
12827;DHT22;66927;48.812;9.118;2023-02-22T17:08:41;12.20;97.10
12827;DHT22;66927;48.812;9.118;2023-02-22T17:11:09;12.10;97.40
12827;DHT22;66927;48.812;9.118;2023-02-22T17:13:36;12.00;97.50
12827;DHT22;66927;48.812;9.118;2023-02-22T17:16:02;11.90;97.60
12827;DHT22;66927;48.812;9.118;2023-02-22T17:18:28;11.80;97.70
12827;DHT22;66927;48.812;9.118;2023-02-22T17:20:58;11.60;97.80
12827;DHT22;66927;48.812;9.118;2023-02-22T17:23:24;11.50;97.80
12827;DHT22;66927;48.812;9.118;2023-02-22T17:26:00;11.40;97.90
12827;DHT22;66927;48.812;9.118;2023-02-22T17:28:29;11.30;98.20
12827;DHT22;66927;48.812;9.118;2023-02-22T17:30:56;11.20;98.60
12827;DHT22;66927;48.812;9.118;2023-02-22T17:33:28;11.10;98.90
12827;DHT22;66927;48.812;9.118;2023-02-22T17:35:56;11.00;98.90
12827;DHT22;66927;48.812;9.118;2023-02-22T17:38:22;10.90;99.00
12827;DHT22;66927;48.812;9.118;2023-02-22T17:40:49;10.90;99.30
12827;DHT22;66927;48.812;9.118;2023-02-22T17:43:19;10.80;99.50
12827;DHT22;66927;48.812;9.118;2023-02-22T17:45:45;10.70;99.80
12827;DHT22;66927;48.812;9.118;2023-02-22T17:48:11;10.70;99.90
12827;DHT22;66927;48.812;9.118;2023-02-22T17:50:39;10.60;99.90
12827;DHT22;66927;48.812;9.118;2023-02-22T17:53:05;10.60;99.90
12827;DHT22;66927;48.812;9.118;2023-02-22T17:55:31;10.50;99.90
12827;DHT22;66927;48.812;9.118;2023-02-22T17:57:58;10.50;99.90
12827;DHT22;66927;48.812;9.118;2023-02-22T18:00:30;10.40;99.90
12827;DHT22;66927;48.812;9.118;2023-02-22T18:03:10;10.40;99.90
12827;DHT22;66927;48.812;9.118;2023-02-22T18:05:45;10.40;99.90
12827;DHT22;66927;48.812;9.118;2023-02-22T18:08:11;10.40;99.90
12827;DHT22;66927;48.812;9.118;2023-02-22T18:10:38;10.40;99.90
12827;DHT22;66927;48.812;9.118;2023-02-22T18:13:04;10.40;99.90
12827;DHT22;66927;48.812;9.118;2023-02-22T18:15:30;10.40;99.90
12827;DHT22;66927;48.812;9.118;2023-02-22T18:18:00;10.40;99.90
12827;DHT22;66927;48.812;9.118;2023-02-22T18:20:26;10.30;99.90
12827;DHT22;66927;48.812;9.118;2023-02-22T18:23:06;10.30;99.90
12827;DHT22;66927;48.812;9.118;2023-02-22T18:25:33;10.30;99.90
12827;DHT22;66927;48.812;9.118;2023-02-22T18:28:01;10.30;99.90
12827;DHT22;66927;48.812;9.118;2023-02-22T18:30:27;10.20;99.90
12827;DHT22;66927;48.812;9.118;2023-02-22T18:32:53;10.20;99.90